Time;durP1;ratioP1;P1;durP2;ratioP2;P2;SDS_P1;SDS_P2;PMS_P1;PMS_P2;Temp;Humidity;BMP_temperature;BMP_pressure;BME280_temperature;BME280_humidity;BME280_pressure;Samples;Min_cycle;Max_cycle;Signal;HPM_P1;HPM_P2
2024/01/05 00:01:10;;;;;;;25.95;13.40;;;4.70;92.50;;;;;;4881920;29;20049;-82
2024/01/05 00:03:36;;;;;;;32.65;13.52;;;4.70;92.60;;;;;;4878448;29;20048;-82
2024/01/05 00:06:02;;;;;;;26.15;12.88;;;4.70;92.60;;;;;;4882510;29;20037;-82
2024/01/05 00:08:27;;;;;;;24.77;13.30;;;4.70;92.50;;;;;;4885520;29;20038;-82
2024/01/05 00:10:53;;;;;;;24.45;13.23;;;4.70;92.60;;;;;;4880042;29;20045;-82
2024/01/05 00:13:19;;;;;;;26.30;14.07;;;4.70;92.60;;;;;;4881215;29;20140;-82
2024/01/05 00:15:44;;;;;;;22.90;12.75;;;4.60;92.60;;;;;;4864008;29;20076;-82
2024/01/05 00:18:10;;;;;;;24.08;12.90;;;4.60;92.60;;;;;;4883013;29;20055;-82
2024/01/05 00:20:35;;;;;;;27.27;13.55;;;4.70;92.60;;;;;;4879605;29;20060;-82
2024/01/05 00:23:01;;;;;;;25.08;12.15;;;4.60;92.60;;;;;;4883659;29;20519;-82
2024/01/05 00:25:27;;;;;;;26.33;12.20;;;4.60;92.60;;;;;;4883079;29;20109;-82
2024/01/05 00:27:53;;;;;;;30.73;13.05;;;4.60;92.60;;;;;;4883787;29;20041;-82
2024/01/05 00:30:19;;;;;;;26.63;14.25;;;4.60;92.70;;;;;;4868281;29;20100;-82
2024/01/05 00:32:45;;;;;;;26.30;12.40;;;4.60;92.60;;;;;;4883067;29;20041;-82
2024/01/05 00:35:10;;;;;;;22.55;10.63;;;4.60;92.70;;;;;;4868198;29;20044;-82
2024/01/05 00:37:36;;;;;;;22.58;11.57;;;4.60;92.70;;;;;;4882614;29;20111;-82
2024/01/05 00:40:03;;;;;;;21.75;11.57;;;4.60;92.70;;;;;;4883368;29;20036;-82
2024/01/05 00:42:29;;;;;;;24.42;10.88;;;4.60;92.70;;;;;;4887604;29;20032;-82
2024/01/05 00:44:54;;;;;;;28.92;11.75;;;4.50;92.70;;;;;;4887821;29;20043;-82
2024/01/05 00:47:20;;;;;;;22.90;10.90;;;4.50;92.70;;;;;;4872312;29;20523;-83
2024/01/05 00:49:45;;;;;;;19.88;10.40;;;4.50;92.80;;;;;;4887876;29;20053;-82
2024/01/05 00:52:12;;;;;;;17.60;10.48;;;4.50;93.00;;;;;;4872279;29;20045;-83
2024/01/05 00:54:39;;;;;;;22.05;10.93;;;4.50;92.80;;;;;;4872064;29;20040;-82
2024/01/05 00:57:05;;;;;;;19.27;10.35;;;4.50;92.80;;;;;;4888203;29;20048;-82
2024/01/05 00:59:30;;;;;;;21.20;9.82;;;4.90;92.90;;;;;;4887827;29;20041;-82
2024/01/05 01:01:57;;;;;;;18.17;9.43;;;4.50;92.80;;;;;;4887753;29;20037;-82
2024/01/05 01:04:23;;;;;;;24.48;10.15;;;4.50;92.80;;;;;;4887802;29;20056;-82
2024/01/05 01:06:49;;;;;;;20.75;9.43;;;4.50;92.80;;;;;;4887036;29;20040;-82
2024/01/05 01:09:14;;;;;;;21.02;10.40;;;4.50;92.80;;;;;;4887658;29;20044;-82
2024/01/05 01:11:40;;;;;;;21.80;9.90;;;4.50;92.80;;;;;;4883249;29;20045;-83
2024/01/05 01:14:05;;;;;;;17.73;9.45;;;4.50;92.80;;;;;;4871112;29;20044;-83
2024/01/05 01:16:32;;;;;;;22.63;9.70;;;4.90;92.90;;;;;;4885741;29;20044;-83
2024/01/05 01:18:57;;;;;;;18.02;9.48;;;4.50;92.80;;;;;;4885759;29;20524;-82
2024/01/05 01:21:23;;;;;;;21.10;10.35;;;4.50;92.90;;;;;;4885042;29;20104;-83
2024/01/05 01:23:49;;;;;;;17.25;9.10;;;4.40;92.80;;;;;;4885383;29;20044;-83
2024/01/05 01:26:16;;;;;;;19.85;10.05;;;4.40;92.90;;;;;;4883905;29;20040;-83
2024/01/05 01:28:41;;;;;;;16.33;8.80;;;4.50;93.10;;;;;;4883693;29;20123;-83
2024/01/05 01:31:07;;;;;;;17.50;9.43;;;4.50;93.00;;;;;;4885465;29;20539;-83
2024/01/05 01:33:32;;;;;;;17.45;9.68;;;4.50;92.90;;;;;;4885318;29;20500;-82
2024/01/05 01:36:01;;;;;;;23.40;9.75;;;4.50;92.90;;;;;;4880784;29;20186;-82
2024/01/05 01:38:27;;;;;;;20.67;10.18;;;4.50;92.90;;;;;;4884430;29;20048;-82
2024/01/05 01:40:55;;;;;;;19.73;9.45;;;4.50;92.90;;;;;;4888498;29;20071;-82
2024/01/05 01:43:24;;;;;;;20.38;9.73;;;4.40;92.90;;;;;;4886589;29;20044;-82
2024/01/05 01:45:51;;;;;;;18.58;10.27;;;4.50;93.00;;;;;;4884415;29;20043;-82
2024/01/05 01:48:19;;;;;;;20.35;10.30;;;4.50;93.00;;;;;;4887114;29;20036;-82
2024/01/05 01:50:46;;;;;;;22.13;10.57;;;4.50;93.00;;;;;;4887995;29;20044;-82
2024/01/05 01:53:13;;;;;;;22.50;10.88;;;4.50;92.90;;;;;;4868278;29;20127;-82
2024/01/05 01:55:40;;;;;;;15.48;9.88;;;4.50;93.00;;;;;;4871408;29;20040;-83
2024/01/05 01:58:07;;;;;;;19.95;11.10;;;4.70;93.00;;;;;;4870986;29;20043;-83
2024/01/05 02:00:33;;;;;;;19.17;10.18;;;4.90;93.10;;;;;;4902175;29;20049;-83
2024/01/05 02:03:01;;;;;;;18.70;10.40;;;4.50;93.00;;;;;;4887079;29;20041;-82
2024/01/05 02:05:28;;;;;;;20.48;10.27;;;4.50;93.00;;;;;;4886489;29;20041;-83
2024/01/05 02:07:54;;;;;;;20.02;10.60;;;4.50;93.00;;;;;;4872758;29;20101;-83
2024/01/05 02:10:20;;;;;;;26.00;11.77;;;4.50;93.00;;;;;;4884888;29;20049;-83
2024/01/05 02:12:46;;;;;;;18.83;10.38;;;4.50;93.00;;;;;;4885276;29;20045;-83
2024/01/05 02:15:12;;;;;;;23.13;11.07;;;4.50;93.00;;;;;;4887738;29;20562;-83
2024/01/05 02:17:37;;;;;;;16.90;9.38;;;4.50;93.00;;;;;;4901237;29;20045;-82
2024/01/05 02:20:03;;;;;;;16.90;9.80;;;4.50;93.00;;;;;;4886900;29;20104;-82
2024/01/05 02:22:32;;;;;;;20.52;10.50;;;4.50;93.00;;;;;;4891341;29;20089;-82
2024/01/05 02:24:58;;;;;;;17.15;9.05;;;4.50;93.00;;;;;;4888436;29;20044;-82
2024/01/05 02:27:25;;;;;;;20.77;10.80;;;4.50;93.00;;;;;;4885832;29;20445;-83
2024/01/05 02:29:50;;;;;;;19.33;9.98;;;4.50;93.00;;;;;;4884069;29;20044;-83
2024/01/05 02:32:17;;;;;;;20.35;9.43;;;4.50;93.00;;;;;;4893100;29;20049;-82
2024/01/05 02:34:43;;;;;;;14.27;8.40;;;4.90;93.20;;;;;;4888434;29;20044;-82
2024/01/05 02:37:09;;;;;;;18.45;9.15;;;4.50;93.10;;;;;;4870701;29;20126;-83
2024/01/05 02:39:35;;;;;;;17.52;9.70;;;4.50;93.10;;;;;;4886575;29;20064;-83
2024/01/05 02:42:00;;;;;;;15.48;8.30;;;4.50;93.10;;;;;;4886310;29;20032;-83
2024/01/05 02:44:26;;;;;;;14.02;8.80;;;4.50;93.10;;;;;;4884161;29;20051;-82
2024/01/05 02:46:51;;;;;;;13.05;8.63;;;4.40;93.10;;;;;;4871163;29;20037;-82
2024/01/05 02:49:17;;;;;;;13.50;8.38;;;4.50;93.20;;;;;;4885084;29;20041;-83
2024/01/05 02:51:43;;;;;;;14.95;8.73;;;4.50;93.10;;;;;;4884916;29;20408;-83
2024/01/05 02:54:09;;;;;;;12.50;7.72;;;4.50;93.10;;;;;;4881072;29;20071;-83
2024/01/05 02:56:34;;;;;;;10.98;7.45;;;4.50;93.10;;;;;;4870852;29;20052;-83
2024/01/05 02:59:01;;;;;;;14.10;7.93;;;4.50;93.10;;;;;;4887971;29;20045;-83
2024/01/05 03:01:27;;;;;;;14.40;8.50;;;4.50;93.10;;;;;;4881318;29;20041;-83
2024/01/05 03:03:53;;;;;;;13.98;8.75;;;4.50;93.10;;;;;;4883226;29;20093;-83
2024/01/05 03:06:19;;;;;;;15.95;9.00;;;4.50;93.10;;;;;;4880203;29;20040;-83
2024/01/05 03:08:45;;;;;;;12.13;7.65;;;4.50;93.20;;;;;;4886836;29;20065;-83
2024/01/05 03:11:11;;;;;;;14.38;8.85;;;4.50;93.20;;;;;;4887625;29;20032;-83
2024/01/05 03:13:37;;;;;;;14.35;8.88;;;5.00;93.30;;;;;;4871894;29;20040;-83
2024/01/05 03:16:04;;;;;;;15.27;9.07;;;4.50;93.20;;;;;;4885545;29;20495;-83
2024/01/05 03:18:30;;;;;;;14.88;7.57;;;4.50;93.20;;;;;;4887436;29;20061;-83
2024/01/05 03:20:56;;;;;;;14.20;8.60;;;4.50;93.20;;;;;;4885095;29;20049;-83
2024/01/05 03:23:21;;;;;;;14.25;8.48;;;4.50;93.20;;;;;;4885374;29;20044;-83
2024/01/05 03:25:48;;;;;;;14.93;8.80;;;4.50;93.30;;;;;;4883372;29;20047;-83
2024/01/05 03:28:14;;;;;;;14.93;8.57;;;4.60;93.30;;;;;;4884659;29;20033;-83
2024/01/05 03:30:42;;;;;;;14.48;8.38;;;4.60;93.30;;;;;;4883845;29;20072;-83
2024/01/05 03:33:09;;;;;;;14.52;7.93;;;4.60;93.30;;;;;;4882017;29;20040;-83
2024/01/05 03:35:35;;;;;;;12.25;7.70;;;4.60;93.30;;;;;;4882943;29;20048;-82
2024/01/05 03:38:01;;;;;;;15.00;8.52;;;4.70;93.30;;;;;;4883795;29;20028;-82
2024/01/05 03:40:26;;;;;;;13.40;8.50;;;4.60;93.30;;;;;;4896977;29;20112;-82
2024/01/05 03:42:52;;;;;;;15.90;9.23;;;4.60;93.40;;;;;;4881298;29;20500;-82
2024/01/05 03:45:18;;;;;;;14.55;8.20;;;4.70;93.40;;;;;;4880460;29;20081;-82
2024/01/05 03:47:43;;;;;;;14.30;8.85;;;4.70;93.40;;;;;;4864872;29;20490;-82
2024/01/05 03:50:09;;;;;;;16.63;9.20;;;5.00;93.50;;;;;;4884540;29;20055;-82
2024/01/05 03:52:35;;;;;;;13.88;8.85;;;4.70;93.40;;;;;;4886851;29;20055;-82
2024/01/05 03:55:01;;;;;;;14.20;8.68;;;4.70;93.40;;;;;;4887392;29;20046;-82
2024/01/05 03:57:27;;;;;;;15.57;8.98;;;4.70;93.40;;;;;;4886000;29;20048;-82
2024/01/05 03:59:53;;;;;;;19.35;9.45;;;4.70;93.40;;;;;;4870185;29;20044;-82
2024/01/05 04:02:19;;;;;;;16.02;10.00;;;4.80;93.40;;;;;;4886142;29;20037;-82
2024/01/05 04:04:45;;;;;;;17.10;9.68;;;4.80;93.40;;;;;;4884459;29;20047;-82
2024/01/05 04:07:10;;;;;;;16.42;10.20;;;4.80;93.40;;;;;;4883310;29;20051;-82
2024/01/05 04:09:36;;;;;;;18.25;11.00;;;4.80;93.30;;;;;;4882516;29;20053;-82
2024/01/05 04:12:02;;;;;;;17.85;10.95;;;4.80;93.40;;;;;;4885075;29;20131;-82
2024/01/05 04:14:28;;;;;;;19.98;10.43;;;4.80;93.40;;;;;;4884639;29;20044;-82
2024/01/05 04:16:54;;;;;;;19.38;11.32;;;4.80;93.40;;;;;;4880800;29;20044;-83
2024/01/05 04:19:19;;;;;;;20.33;12.85;;;4.80;93.40;;;;;;4868257;29;20052;-82
2024/01/05 04:21:45;;;;;;;20.08;11.77;;;4.90;93.40;;;;;;4883267;29;20033;-83
2024/01/05 04:24:11;;;;;;;21.50;12.23;;;4.90;93.40;;;;;;4886133;29;20044;-83
2024/01/05 04:26:37;;;;;;;21.50;11.95;;;4.90;93.40;;;;;;4878084;29;20059;-82
2024/01/05 04:29:02;;;;;;;18.38;11.65;;;4.90;93.50;;;;;;4885445;29;20420;-82
2024/01/05 04:31:28;;;;;;;20.27;12.85;;;4.90;93.70;;;;;;4887379;29;20100;-82
2024/01/05 04:33:54;;;;;;;20.55;12.52;;;4.90;93.40;;;;;;4887518;29;20116;-82
2024/01/05 04:36:20;;;;;;;21.70;12.50;;;5.20;93.60;;;;;;4870503;29;20503;-83
2024/01/05 04:38:46;;;;;;;25.30;12.82;;;4.90;93.50;;;;;;4870028;29;20053;-83
2024/01/05 04:41:14;;;;;;;18.90;12.25;;;4.90;93.50;;;;;;4884138;29;20036;-82
2024/01/05 04:43:39;;;;;;;22.75;12.90;;;4.90;93.50;;;;;;4887419;29;20041;-82
2024/01/05 04:46:06;;;;;;;21.65;12.57;;;4.90;93.50;;;;;;4883649;29;20056;-82
2024/01/05 04:48:32;;;;;;;21.73;12.95;;;4.90;93.50;;;;;;4883685;29;20041;-83
2024/01/05 04:50:58;;;;;;;21.08;13.48;;;5.00;93.60;;;;;;4885814;29;20048;-83
2024/01/05 04:53:23;;;;;;;23.50;13.43;;;5.00;93.60;;;;;;4887272;29;20048;-83
2024/01/05 04:55:49;;;;;;;24.05;15.32;;;5.00;93.60;;;;;;4867783;29;20080;-83
2024/01/05 04:58:14;;;;;;;23.27;14.23;;;5.00;93.60;;;;;;4881162;29;20072;-82
2024/01/05 05:00:40;;;;;;;23.63;14.18;;;5.00;93.60;;;;;;4867100;29;20504;-82
2024/01/05 05:03:06;;;;;;;21.00;13.43;;;5.00;93.60;;;;;;4883920;29;20044;-82
2024/01/05 05:05:31;;;;;;;22.50;13.80;;;5.00;93.60;;;;;;4880576;29;20068;-82
2024/01/05 05:07:57;;;;;;;27.35;14.10;;;5.00;93.60;;;;;;4865946;29;20045;-82
2024/01/05 05:10:23;;;;;;;22.15;13.30;;;5.00;93.60;;;;;;4881106;29;20081;-82
2024/01/05 05:12:49;;;;;;;26.13;14.95;;;5.00;93.60;;;;;;4881900;29;20049;-82
2024/01/05 05:15:15;;;;;;;19.00;13.18;;;5.00;93.60;;;;;;4886105;29;20047;-82
2024/01/05 05:17:40;;;;;;;27.48;14.80;;;5.00;93.60;;;;;;4883137;29;20110;-82
2024/01/05 05:20:06;;;;;;;23.98;14.77;;;5.00;93.70;;;;;;4886643;29;20064;-82
2024/01/05 05:22:33;;;;;;;23.05;13.93;;;5.00;93.70;;;;;;4888756;29;20060;-82
2024/01/05 05:24:59;;;;;;;29.27;15.52;;;5.00;93.60;;;;;;4870018;29;20408;-82
2024/01/05 05:27:24;;;;;;;23.77;15.07;;;5.00;93.60;;;;;;4887858;29;20037;-82
2024/01/05 05:29:50;;;;;;;22.33;14.02;;;5.00;93.70;;;;;;4873531;29;20090;-82
2024/01/05 05:32:15;;;;;;;28.02;14.88;;;5.00;93.70;;;;;;4886980;29;20049;-82
2024/01/05 05:34:43;;;;;;;25.20;14.55;;;5.00;93.70;;;;;;4889901;29;20130;-82
2024/01/05 05:37:08;;;;;;;22.85;15.27;;;5.00;93.70;;;;;;4883600;29;20491;-82
2024/01/05 05:39:34;;;;;;;23.05;14.60;;;5.00;93.60;;;;;;4885652;29;20108;-82
2024/01/05 05:42:00;;;;;;;26.02;16.02;;;5.30;93.80;;;;;;4885053;29;20041;-82
2024/01/05 05:44:25;;;;;;;29.10;15.05;;;5.00;93.70;;;;;;4885894;29;20123;-82
2024/01/05 05:46:51;;;;;;;24.48;15.10;;;5.10;93.60;;;;;;4886029;29;20081;-82
2024/01/05 05:49:16;;;;;;;26.75;15.40;;;5.00;93.70;;;;;;4880297;29;20037;-82
2024/01/05 05:51:42;;;;;;;26.05;14.60;;;5.10;93.90;;;;;;4885446;29;20040;-82
2024/01/05 05:54:08;;;;;;;24.30;16.20;;;5.10;93.70;;;;;;4890029;29;20044;-82
2024/01/05 05:56:34;;;;;;;24.95;16.05;;;5.10;93.70;;;;;;4905444;29;20043;-83
2024/01/05 05:58:59;;;;;;;22.77;14.70;;;5.10;93.70;;;;;;4900825;29;20040;-83
2024/01/05 06:01:25;;;;;;;22.75;15.07;;;5.10;93.70;;;;;;4874775;29;20044;-83
2024/01/05 06:03:51;;;;;;;28.23;15.50;;;5.10;93.70;;;;;;4888958;29;20040;-83
2024/01/05 06:06:21;;;;;;;27.23;16.38;;;5.10;93.70;;;;;;4883055;29;20041;-83
2024/01/05 06:08:48;;;;;;;29.05;16.00;;;5.20;93.80;;;;;;4902646;29;20041;-82
2024/01/05 06:11:17;;;;;;;25.60;15.50;;;5.20;93.80;;;;;;4884338;29;20124;-84
2024/01/05 06:13:42;;;;;;;31.83;16.88;;;5.20;93.80;;;;;;4883236;29;20040;-83
2024/01/05 06:16:08;;;;;;;29.90;16.35;;;5.10;93.80;;;;;;4884710;29;20037;-82
2024/01/05 06:18:34;;;;;;;27.63;16.88;;;5.70;93.90;;;;;;4877186;29;20189;-82
2024/01/05 06:21:00;;;;;;;26.17;15.90;;;5.80;94.00;;;;;;4877389;29;20181;-82
2024/01/05 06:23:25;;;;;;;27.85;16.45;;;5.30;93.90;;;;;;4868611;29;20108;-82
2024/01/05 06:25:51;;;;;;;26.63;16.10;;;5.30;93.90;;;;;;4876382;29;20524;-82
2024/01/05 06:28:17;;;;;;;29.83;16.55;;;5.30;93.90;;;;;;4882293;29;20454;-82
2024/01/05 06:30:43;;;;;;;29.67;16.00;;;5.30;93.90;;;;;;4868094;29;20049;-84
2024/01/05 06:33:08;;;;;;;27.88;16.05;;;5.30;93.90;;;;;;4884165;29;20048;-83
2024/01/05 06:35:34;;;;;;;30.10;16.83;;;5.30;93.90;;;;;;4884584;29;20087;-83
2024/01/05 06:38:00;;;;;;;27.10;16.52;;;5.40;93.90;;;;;;4884472;29;20041;-83
2024/01/05 06:40:25;;;;;;;28.95;16.60;;;5.40;93.90;;;;;;4883883;29;20045;-84
2024/01/05 06:42:51;;;;;;;29.63;17.48;;;5.40;93.90;;;;;;4884299;29;20049;-83
2024/01/05 06:45:16;;;;;;;30.50;16.95;;;5.40;93.90;;;;;;4884724;29;20124;-83
2024/01/05 06:47:42;;;;;;;27.20;16.73;;;5.50;94.00;;;;;;4870172;29;20466;-83
2024/01/05 06:50:08;;;;;;;29.85;16.92;;;5.50;93.90;;;;;;4875009;29;20489;-83
2024/01/05 06:52:34;;;;;;;33.55;17.55;;;5.50;93.90;;;;;;4890859;29;20102;-83
2024/01/05 06:55:00;;;;;;;29.08;16.95;;;5.50;93.90;;;;;;4894400;29;20044;-83
2024/01/05 06:57:28;;;;;;;30.65;17.17;;;5.60;93.90;;;;;;4895376;29;20041;-83
2024/01/05 06:59:53;;;;;;;33.33;18.55;;;5.50;93.90;;;;;;4882601;29;20048;-83
2024/01/05 07:02:19;;;;;;;28.20;16.92;;;5.60;94.00;;;;;;4884289;29;20037;-83
2024/01/05 07:04:45;;;;;;;30.55;17.30;;;5.60;94.00;;;;;;4881180;29;20048;-83
2024/01/05 07:07:10;;;;;;;27.38;16.90;;;5.60;94.00;;;;;;4867551;29;20061;-83
2024/01/05 07:09:36;;;;;;;30.15;17.75;;;5.60;94.00;;;;;;4882594;29;20045;-82
2024/01/05 07:12:02;;;;;;;31.40;17.65;;;5.60;94.00;;;;;;4878492;29;20045;-83
2024/01/05 07:14:28;;;;;;;26.77;17.13;;;5.70;94.00;;;;;;4877636;29;20386;-83
2024/01/05 07:16:56;;;;;;;29.55;18.00;;;5.70;94.00;;;;;;4876282;29;20048;-83
2024/01/05 07:19:22;;;;;;;31.63;18.25;;;5.70;94.00;;;;;;4860747;29;20064;-83
2024/01/05 07:21:50;;;;;;;30.90;17.80;;;5.80;94.00;;;;;;4862836;29;20049;-83
2024/01/05 07:24:16;;;;;;;36.20;19.50;;;5.80;94.00;;;;;;4879150;29;20037;-83
2024/01/05 07:26:43;;;;;;;32.63;19.17;;;5.80;94.00;;;;;;4874041;29;20034;-83
2024/01/05 07:29:08;;;;;;;34.15;18.65;;;5.80;94.00;;;;;;4881365;29;20041;-83
2024/01/05 07:31:34;;;;;;;31.10;18.25;;;5.80;94.00;;;;;;4861206;29;20049;-83
2024/01/05 07:34:00;;;;;;;31.60;18.58;;;5.90;94.10;;;;;;4874522;29;20045;-83
2024/01/05 07:36:26;;;;;;;33.05;17.83;;;5.90;94.00;;;;;;4877044;29;20041;-83
2024/01/05 07:38:51;;;;;;;31.15;18.48;;;5.90;94.00;;;;;;4875790;29;20045;-83
2024/01/05 07:41:18;;;;;;;34.28;18.92;;;5.90;94.00;;;;;;4878578;29;20492;-83
2024/01/05 07:43:44;;;;;;;34.72;19.08;;;5.90;94.00;;;;;;4879288;29;20037;-83
2024/01/05 07:46:10;;;;;;;38.28;18.60;;;6.00;94.20;;;;;;4875431;29;22363;-83
2024/01/05 07:48:40;;;;;;;31.85;19.00;;;6.00;94.10;;;;;;4866636;29;20048;-83
2024/01/05 07:51:06;;;;;;;32.30;18.65;;;6.00;94.10;;;;;;4881822;29;20108;-83
2024/01/05 07:53:31;;;;;;;35.90;18.88;;;6.00;94.10;;;;;;4866922;29;20108;-83
2024/01/05 07:56:02;;;;;;;31.58;18.60;;;6.00;94.10;;;;;;4882039;29;20049;-83
2024/01/05 07:58:28;;;;;;;33.45;19.88;;;6.10;94.10;;;;;;4881373;29;20385;-83
2024/01/05 08:00:53;;;;;;;36.95;20.60;;;6.00;94.10;;;;;;4881585;29;20048;-83
2024/01/05 08:03:21;;;;;;;34.33;19.95;;;6.10;94.10;;;;;;4881039;29;20073;-83
2024/01/05 08:05:47;;;;;;;34.60;19.95;;;6.10;94.10;;;;;;4865735;29;20070;-83
2024/01/05 08:08:13;;;;;;;32.67;19.02;;;6.10;94.10;;;;;;4880409;29;20143;-83
2024/01/05 08:10:39;;;;;;;32.30;19.65;;;6.10;94.10;;;;;;4865257;29;20049;-83
2024/01/05 08:13:04;;;;;;;35.55;19.90;;;6.20;94.10;;;;;;4879217;29;20041;-83
2024/01/05 08:15:30;;;;;;;33.42;17.92;;;6.10;94.10;;;;;;4892540;29;20048;-83
2024/01/05 08:17:56;;;;;;;37.58;18.88;;;6.10;94.10;;;;;;4881160;29;20048;-83
2024/01/05 08:20:22;;;;;;;32.05;17.77;;;6.20;94.10;;;;;;4878734;29;20054;-83
2024/01/05 08:22:47;;;;;;;31.48;18.02;;;6.20;94.10;;;;;;4881034;29;20519;-83
2024/01/05 08:25:16;;;;;;;37.58;18.45;;;6.20;94.10;;;;;;4876710;29;20041;-83
2024/01/05 08:27:42;;;;;;;33.22;18.45;;;6.20;94.10;;;;;;4866074;29;20396;-83
2024/01/05 08:30:12;;;;;;;32.20;18.85;;;6.20;94.20;;;;;;4863237;29;20043;-83
2024/01/05 08:32:38;;;;;;;29.42;18.35;;;6.30;94.20;;;;;;4878309;29;20079;-84
2024/01/05 08:35:07;;;;;;;28.52;17.27;;;6.50;94.20;;;;;;4864980;29;20044;-83
2024/01/05 08:37:33;;;;;;;33.35;18.30;;;6.30;94.20;;;;;;4878613;29;20076;-82
2024/01/05 08:39:59;;;;;;;36.45;20.13;;;6.30;94.20;;;;;;4865699;29;20045;-83
2024/01/05 08:42:25;;;;;;;31.98;19.55;;;6.30;94.20;;;;;;4876267;29;20048;-83
2024/01/05 08:44:50;;;;;;;32.33;17.85;;;6.30;94.20;;;;;;4877101;29;20037;-83
2024/01/05 08:47:20;;;;;;;31.33;16.48;;;6.40;94.30;;;;;;4878449;29;20177;-83
2024/01/05 08:49:46;;;;;;;27.45;16.65;;;6.40;94.30;;;;;;4877738;29;20041;-83
2024/01/05 08:52:11;;;;;;;27.67;14.70;;;6.40;94.30;;;;;;4863911;29;20041;-83
2024/01/05 08:54:40;;;;;;;27.80;16.48;;;6.50;94.30;;;;;;4876393;29;20041;-83
2024/01/05 08:57:07;;;;;;;26.75;15.60;;;6.50;94.30;;;;;;4879617;29;20048;-82
2024/01/05 08:59:33;;;;;;;30.10;15.55;;;6.50;94.30;;;;;;4881189;29;20041;-82
2024/01/05 09:01:59;;;;;;;29.40;15.05;;;6.50;94.30;;;;;;4881667;29;20045;-83
2024/01/05 09:04:24;;;;;;;26.38;15.25;;;6.60;94.40;;;;;;4886198;29;20037;-83
2024/01/05 09:06:51;;;;;;;25.00;15.43;;;6.60;94.40;;;;;;4867839;29;20049;-83
2024/01/05 09:09:16;;;;;;;24.80;13.93;;;6.60;94.40;;;;;;4884692;29;20112;-83
2024/01/05 09:11:42;;;;;;;23.25;14.80;;;6.70;94.40;;;;;;4886960;29;20104;-83
2024/01/05 09:14:09;;;;;;;23.63;14.70;;;6.70;94.40;;;;;;4887562;29;20047;-83
2024/01/05 09:16:36;;;;;;;24.48;13.63;;;6.70;94.40;;;;;;4868598;29;20131;-83
2024/01/05 09:19:01;;;;;;;26.00;13.13;;;6.80;94.40;;;;;;4886416;29;20049;-83
2024/01/05 09:21:28;;;;;;;21.73;12.70;;;6.70;94.40;;;;;;4884964;29;20128;-83
2024/01/05 09:23:53;;;;;;;26.88;13.73;;;6.80;94.40;;;;;;4887840;29;20075;-83
2024/01/05 09:26:19;;;;;;;22.55;11.70;;;6.80;94.40;;;;;;4883599;29;20034;-83
2024/01/05 09:28:44;;;;;;;22.48;12.63;;;6.90;94.40;;;;;;4884438;29;20041;-83
2024/01/05 09:31:10;;;;;;;22.92;12.45;;;6.90;94.40;;;;;;4881463;29;20150;-83
2024/01/05 09:33:36;;;;;;;22.98;12.60;;;6.90;94.40;;;;;;4869812;29;20516;-83
2024/01/05 09:36:02;;;;;;;26.73;12.13;;;6.90;94.40;;;;;;4884941;29;20059;-83
2024/01/05 09:38:28;;;;;;;22.38;11.60;;;7.00;94.50;;;;;;4880306;29;20044;-83
2024/01/05 09:40:55;;;;;;;19.80;11.95;;;7.10;94.50;;;;;;4865093;29;20124;-83
2024/01/05 09:43:23;;;;;;;17.45;10.23;;;7.00;94.50;;;;;;4878363;29;20519;-83
2024/01/05 09:45:52;;;;;;;18.48;10.02;;;7.00;94.50;;;;;;4881418;29;20168;-83
2024/01/05 09:48:19;;;;;;;17.10;9.38;;;7.10;94.50;;;;;;4879722;29;20076;-83
2024/01/05 09:50:52;;;;;;;15.13;8.60;;;7.00;94.50;;;;;;4867316;29;20049;-83
2024/01/05 09:53:19;;;;;;;15.10;8.50;;;7.10;94.50;;;;;;4883680;29;20045;-83
2024/01/05 09:55:49;;;;;;;15.00;8.27;;;7.10;94.50;;;;;;4880859;29;20041;-83
2024/01/05 09:58:15;;;;;;;16.17;8.60;;;7.10;94.50;;;;;;4882231;29;20044;-83
2024/01/05 10:00:46;;;;;;;18.40;9.20;;;7.10;94.50;;;;;;4881168;29;20037;-83
2024/01/05 10:03:21;;;;;;;16.73;8.15;;;7.60;94.60;;;;;;4868479;29;20045;-83
2024/01/05 10:05:52;;;;;;;14.55;7.70;;;7.20;94.50;;;;;;4866954;29;20045;-83
2024/01/05 10:08:17;;;;;;;12.55;7.60;;;7.20;94.50;;;;;;4880659;29;20386;-83
2024/01/05 10:10:52;;;;;;;15.57;7.53;;;7.20;94.50;;;;;;4879015;29;20045;-83
2024/01/05 10:13:18;;;;;;;12.73;6.70;;;7.20;94.50;;;;;;4868109;29;20556;-83
2024/01/05 10:16:16;;;;;;;10.63;6.03;;;7.20;94.40;;;;;;4880654;29;20501;-83
2024/01/05 10:18:42;;;;;;;9.30;4.68;;;7.20;94.50;;;;;;4897647;29;20124;-83
2024/01/05 10:21:09;;;;;;;9.75;4.85;;;7.30;94.50;;;;;;4882826;29;20080;-83
2024/01/05 10:23:44;;;;;;;10.13;4.43;;;7.30;94.50;;;;;;4882509;29;20079;-83
2024/01/05 10:26:17;;;;;;;10.18;4.00;;;7.30;94.50;;;;;;4881576;29;20037;-82
2024/01/05 10:28:42;;;;;;;8.88;3.78;;;7.50;94.50;;;;;;4867566;29;20522;-83
2024/01/05 10:31:13;;;;;;;9.65;2.95;;;7.30;94.40;;;;;;4881168;29;20061;-83
2024/01/05 10:33:49;;;;;;;6.53;3.15;;;7.30;94.40;;;;;;4881614;29;20083;-83
2024/01/05 10:36:27;;;;;;;7.63;3.10;;;7.30;94.40;;;;;;4867057;29;20072;-83
2024/01/05 10:38:53;;;;;;;5.05;2.00;;;7.40;94.40;;;;;;4879852;29;20636;-83
2024/01/05 10:41:22;;;;;;;5.78;2.45;;;7.40;94.30;;;;;;4882844;29;20041;-83
2024/01/05 10:43:49;;;;;;;5.45;1.90;;;7.40;94.30;;;;;;4880167;29;20104;-83
2024/01/05 10:46:17;;;;;;;7.53;2.08;;;7.40;94.30;;;;;;4882029;29;20041;-83
2024/01/05 10:48:43;;;;;;;3.63;1.65;;;7.40;94.30;;;;;;4865422;29;20056;-83
2024/01/05 10:51:16;;;;;;;6.40;1.88;;;7.40;94.20;;;;;;4877597;29;20033;-83
2024/01/05 10:53:47;;;;;;;5.10;1.27;;;7.40;94.20;;;;;;4882503;29;20076;-83
2024/01/05 10:56:13;;;;;;;6.43;1.20;;;7.50;94.20;;;;;;4881885;29;20056;-83
2024/01/05 10:58:39;;;;;;;4.18;1.40;;;7.50;94.10;;;;;;4865981;29;20070;-83
2024/01/05 11:01:06;;;;;;;2.22;0.90;;;7.40;94.10;;;;;;4882966;29;20037;-83
2024/01/05 11:03:38;;;;;;;4.25;1.20;;;7.50;94.00;;;;;;4882369;29;20065;-82
2024/01/05 11:06:11;;;;;;;2.42;0.93;;;7.50;94.00;;;;;;4883230;29;20037;-82
2024/01/05 11:09:05;;;;;;;2.30;0.70;;;8.00;94.10;;;;;;4886081;29;20094;-82
2024/01/05 11:11:48;;;;;;;3.38;1.10;;;7.50;93.90;;;;;;4880933;29;20132;-82
2024/01/05 11:14:24;;;;;;;4.78;1.23;;;7.50;93.80;;;;;;4875400;29;20060;-82
2024/01/05 11:17:21;;;;;;;2.80;0.70;;;7.50;93.70;;;;;;4880781;29;20048;-82
2024/01/05 11:19:56;;;;;;;3.17;0.90;;;7.50;93.70;;;;;;4879670;29;20441;-82
2024/01/05 11:22:28;;;;;;;2.38;0.80;;;7.40;93.60;;;;;;4881356;29;20040;-82
2024/01/05 11:24:55;;;;;;;3.40;0.98;;;7.40;93.50;;;;;;4880143;29;20049;-82
2024/01/05 11:27:33;;;;;;;2.78;1.10;;;7.50;93.50;;;;;;4863501;29;20124;-82
2024/01/05 11:29:59;;;;;;;3.05;0.77;;;7.50;93.50;;;;;;4882544;29;20045;-84
2024/01/05 11:32:47;;;;;;;2.40;0.93;;;7.40;93.40;;;;;;4883073;29;20052;-83
2024/01/05 11:35:16;;;;;;;2.00;0.80;;;7.40;93.30;;;;;;4896158;29;20572;-83
2024/01/05 11:37:43;;;;;;;3.38;0.98;;;7.40;93.30;;;;;;4882196;29;20060;-84
2024/01/05 11:40:25;;;;;;;2.83;0.80;;;7.40;93.30;;;;;;4884161;29;20516;-83
2024/01/05 11:42:55;;;;;;;1.20;0.60;;;7.40;93.20;;;;;;4878811;29;20113;-83
2024/01/05 11:45:47;;;;;;;2.72;1.10;;;7.40;93.20;;;;;;4879992;29;20033;-83
2024/01/05 11:48:35;;;;;;;1.80;0.80;;;7.40;93.20;;;;;;4879169;29;20052;-83
2024/01/05 11:51:06;;;;;;;1.98;1.05;;;7.40;93.20;;;;;;4878560;29;20461;-83
2024/01/05 11:53:32;;;;;;;1.10;0.60;;;7.30;93.20;;;;;;4865161;29;20088;-83
2024/01/05 11:56:03;;;;;;;1.45;0.80;;;7.40;93.20;;;;;;4863994;29;20061;-84
2024/01/05 11:58:33;;;;;;;1.15;0.60;;;7.30;93.20;;;;;;4863078;29;20072;-84
2024/01/05 12:00:59;;;;;;;2.47;0.70;;;7.30;93.10;;;;;;4877635;29;20573;-84
2024/01/05 12:03:26;;;;;;;1.80;0.65;;;7.40;93.10;;;;;;4878281;29;20516;-83
2024/01/05 12:05:55;;;;;;;2.30;0.70;;;7.30;93.00;;;;;;4880494;29;20072;-83
2024/01/05 12:08:21;;;;;;;2.88;0.60;;;7.30;93.00;;;;;;4878636;29;20041;-83
2024/01/05 12:10:53;;;;;;;1.00;0.60;;;7.30;93.00;;;;;;4878283;29;21270;-84
2024/01/05 12:13:24;;;;;;;1.20;0.55;;;7.20;93.00;;;;;;4874649;29;20048;-84
2024/01/05 12:15:57;;;;;;;0.90;0.40;;;7.50;93.10;;;;;;4879235;29;20059;-83
2024/01/05 12:18:27;;;;;;;2.20;0.60;;;7.30;93.10;;;;;;4879718;29;20128;-83
2024/01/05 12:21:02;;;;;;;1.33;0.40;;;7.20;93.00;;;;;;4883149;29;20048;-84
2024/01/05 12:23:29;;;;;;;2.22;0.68;;;7.20;93.00;;;;;;4900433;29;20040;-84
2024/01/05 12:26:08;;;;;;;1.20;0.57;;;7.20;93.10;;;;;;4881155;29;20041;-84
2024/01/05 12:28:38;;;;;;;2.20;0.40;;;7.20;92.90;;;;;;4883518;29;20044;-84
2024/01/05 12:31:05;;;;;;;1.90;0.60;;;7.20;93.00;;;;;;4881850;29;20037;-84
2024/01/05 12:33:33;;;;;;;1.45;0.50;;;7.20;92.90;;;;;;4866013;29;20136;-84
2024/01/05 12:35:59;;;;;;;1.00;0.50;;;7.10;92.90;;;;;;4880581;29;20041;-84
2024/01/05 12:38:31;;;;;;;0.88;0.50;;;7.10;92.90;;;;;;4883135;29;20048;-84
2024/01/05 12:41:11;;;;;;;1.02;0.50;;;7.10;92.90;;;;;;4868766;29;20036;-84
2024/01/05 12:43:40;;;;;;;2.75;0.95;;;7.10;92.90;;;;;;4886533;29;20492;-84